createdAt,value
2023-05-04T00:00:55.796Z,61.85
2023-05-04T00:01:58.066Z,62.05
2023-05-04T00:03:00.803Z,61.50
2023-05-04T00:04:03.808Z,61.41
2023-05-04T00:05:07.269Z,60.85
2023-05-04T00:06:09.701Z,61.28
2023-05-04T00:07:12.385Z,61.61
2023-05-04T00:08:14.614Z,61.83
2023-05-04T00:09:16.978Z,62.43
2023-05-04T00:10:19.402Z,62.74
2023-05-04T00:11:22.190Z,62.97
2023-05-04T00:12:24.664Z,62.92
2023-05-04T00:13:26.896Z,62.22
2023-05-04T00:14:29.316Z,61.89
2023-05-04T00:15:31.552Z,61.92
2023-05-04T00:16:36.109Z,62.50
2023-05-04T00:17:39.978Z,62.68
2023-05-04T00:18:42.284Z,62.77
2023-05-04T00:19:46.061Z,62.43
2023-05-04T00:20:48.649Z,62.56
2023-05-04T00:21:50.838Z,62.48
2023-05-04T00:22:53.194Z,62.80
2023-05-04T00:23:55.376Z,62.87
2023-05-04T00:24:57.583Z,62.06
2023-05-04T00:26:00.693Z,62.26
2023-05-04T00:27:03.015Z,62.17
2023-05-04T00:28:05.457Z,62.04
2023-05-04T00:29:08.222Z,61.66
2023-05-04T00:30:11.253Z,60.94
2023-05-04T00:31:15.216Z,60.98
2023-05-04T00:32:17.498Z,60.68
2023-05-04T00:33:19.705Z,60.21
2023-05-04T00:34:21.910Z,60.51
2023-05-04T00:35:25.295Z,60.41
2023-05-04T00:36:27.745Z,60.45
2023-05-04T00:37:29.918Z,60.50
2023-05-04T00:38:47.005Z,60.82
2023-05-04T00:39:49.200Z,60.60
2023-05-04T00:40:51.742Z,60.09
2023-05-04T00:41:53.995Z,60.17
2023-05-04T00:42:56.388Z,60.17
2023-05-04T00:43:59.903Z,59.98
2023-05-04T00:45:02.276Z,60.32
2023-05-04T00:46:04.586Z,60.13
2023-05-04T00:47:08.337Z,60.16
2023-05-04T00:48:10.890Z,60.19
2023-05-04T00:49:13.341Z,59.72
2023-05-04T00:50:15.769Z,59.63
2023-05-04T00:51:20.822Z,59.38
2023-05-04T00:52:24.502Z,59.56
2023-05-04T00:53:27.248Z,59.98
2023-05-04T00:54:29.923Z,59.99
2023-05-04T00:55:32.700Z,60.43
2023-05-04T00:56:41.100Z,61.03
2023-05-04T00:57:43.804Z,61.49
2023-05-04T00:58:46.112Z,61.36
2023-05-04T00:59:48.499Z,61.66
2023-05-04T01:00:51.650Z,61.63
2023-05-04T01:01:53.840Z,61.41
2023-05-04T01:02:56.273Z,61.52
2023-05-04T01:03:58.917Z,61.23
2023-05-04T01:05:02.960Z,61.09
2023-05-04T01:06:59.537Z,61.97
2023-05-04T01:08:06.155Z,61.52
2023-05-04T01:09:30.307Z,61.25
2023-05-04T01:10:44.791Z,61.73
2023-05-04T01:12:07.315Z,62.49
2023-05-04T01:13:14.257Z,62.36
2023-05-04T01:14:21.907Z,63.00
2023-05-04T01:15:25.353Z,62.82
2023-05-04T01:16:27.865Z,62.74
2023-05-04T01:17:30.259Z,62.90
2023-05-04T01:18:32.501Z,62.69
2023-05-04T01:19:36.990Z,62.44
2023-05-04T01:20:39.737Z,62.74
2023-05-04T01:21:42.566Z,62.57
2023-05-04T01:22:45.134Z,63.18
2023-05-04T01:23:47.369Z,63.47
2023-05-04T01:24:50.691Z,63.34
2023-05-04T01:26:11.965Z,64.00
2023-05-04T01:27:24.535Z,63.76
2023-05-04T01:28:57.356Z,63.58
2023-05-04T01:30:05.715Z,63.70
2023-05-04T01:31:11.977Z,63.78
2023-05-04T01:32:15.466Z,63.50
2023-05-04T01:33:19.256Z,63.34
2023-05-04T01:34:22.341Z,62.74
2023-05-04T01:35:25.317Z,62.49
2023-05-04T01:36:28.151Z,62.39
2023-05-04T01:37:30.685Z,62.01
2023-05-04T01:38:32.976Z,62.10
2023-05-04T01:39:35.787Z,61.89
2023-05-04T01:40:38.007Z,61.60
2023-05-04T01:41:41.576Z,61.43
2023-05-04T01:42:44.220Z,61.25
2023-05-04T01:43:47.337Z,61.40
2023-05-04T01:44:49.917Z,61.16
2023-05-04T01:45:52.966Z,61.16
2023-05-04T01:46:55.262Z,61.07
2023-05-04T01:47:58.003Z,61.46
2023-05-04T01:49:01.104Z,61.53
2023-05-04T01:50:04.390Z,62.07
2023-05-04T01:51:06.734Z,62.17
2023-05-04T01:52:08.915Z,62.13
2023-05-04T01:53:11.533Z,62.25
2023-05-04T01:54:13.942Z,62.18
2023-05-04T01:55:16.126Z,61.91
2023-05-04T01:56:18.438Z,62.08
2023-05-04T01:57:20.827Z,62.07
2023-05-04T01:58:23.139Z,61.95
2023-05-04T01:59:25.613Z,61.95
2023-05-04T02:00:28.343Z,62.13
2023-05-04T02:01:30.658Z,61.83
2023-05-04T02:02:33.198Z,62.38
2023-05-04T02:03:35.624Z,63.42
2023-05-04T02:04:38.691Z,64.32
2023-05-04T02:05:40.930Z,65.22
2023-05-04T02:06:43.185Z,65.84
2023-05-04T02:07:45.448Z,66.38
2023-05-04T02:08:48.046Z,66.60
2023-05-04T02:09:50.294Z,66.37
2023-05-04T02:10:52.659Z,66.08
2023-05-04T02:11:55.352Z,66.34
2023-05-04T02:12:58.100Z,65.97
2023-05-04T02:14:01.171Z,65.79
2023-05-04T02:15:03.861Z,65.31
2023-05-04T02:16:06.898Z,65.69
2023-05-04T02:17:09.409Z,65.45
2023-05-04T02:18:12.701Z,65.08
2023-05-04T02:19:15.175Z,64.67
2023-05-04T02:20:18.823Z,64.07
2023-05-04T02:21:21.577Z,63.27
2023-05-04T02:22:24.272Z,62.96
2023-05-04T02:23:28.334Z,62.95
2023-05-04T02:24:30.696Z,63.00
2023-05-04T02:25:33.295Z,62.56
2023-05-04T02:26:36.554Z,62.40
2023-05-04T02:27:38.753Z,62.40
2023-05-04T02:28:41.244Z,62.39
2023-05-04T02:29:44.610Z,63.14
2023-05-04T02:30:46.971Z,63.46
2023-05-04T02:31:49.243Z,63.14
2023-05-04T02:32:51.552Z,63.51
2023-05-04T02:33:54.018Z,63.11
2023-05-04T02:34:56.251Z,63.02
2023-05-04T02:35:58.615Z,63.33
2023-05-04T02:37:01.225Z,63.36
2023-05-04T02:38:03.614Z,64.28
2023-05-04T02:39:05.846Z,64.65
2023-05-04T02:40:10.652Z,64.52
2023-05-04T02:41:13.069Z,65.08
2023-05-04T02:42:15.233Z,64.96
2023-05-04T02:43:17.668Z,65.03
2023-05-04T02:44:19.930Z,64.78
2023-05-04T02:45:22.340Z,64.52
2023-05-04T02:46:26.733Z,64.56
2023-05-04T02:47:29.147Z,65.02
2023-05-04T02:48:31.810Z,65.18
2023-05-04T02:49:34.150Z,64.91
2023-05-04T02:50:37.642Z,64.73
2023-05-04T02:51:39.866Z,64.65
2023-05-04T02:52:42.295Z,64.57
2023-05-04T02:53:44.806Z,64.10
2023-05-04T02:54:47.046Z,64.10
2023-05-04T02:55:49.676Z,64.29
2023-05-04T02:56:52.011Z,64.31
2023-05-04T02:57:54.274Z,64.69
2023-05-04T02:58:56.935Z,64.69
2023-05-04T02:59:59.155Z,64.12
2023-05-04T03:01:02.240Z,63.81
2023-05-04T03:02:04.659Z,64.23
2023-05-04T03:03:07.251Z,64.15
2023-05-04T03:04:09.755Z,64.03
2023-05-04T03:05:12.166Z,64.13
2023-05-04T03:06:14.346Z,64.45
2023-05-04T03:07:16.802Z,65.29
2023-05-04T03:08:19.428Z,65.29
2023-05-04T03:09:21.829Z,65.02
2023-05-04T03:10:24.990Z,65.07
2023-05-04T03:11:27.421Z,65.76
2023-05-04T03:12:30.077Z,66.19
2023-05-04T03:13:32.989Z,66.16
2023-05-04T03:14:35.384Z,66.55
2023-05-04T03:15:37.872Z,67.01
2023-05-04T03:16:40.326Z,67.05
2023-05-04T03:17:43.425Z,67.39
2023-05-04T03:18:58.422Z,67.73
2023-05-04T03:20:01.746Z,67.90
2023-05-04T03:21:06.228Z,68.05
2023-05-04T03:22:09.216Z,68.02
2023-05-04T03:23:11.692Z,67.98
2023-05-04T03:24:14.769Z,68.12
2023-05-04T03:25:17.448Z,68.29
2023-05-04T03:26:19.630Z,68.48
2023-05-04T03:27:21.824Z,68.36
2023-05-04T03:28:24.076Z,68.54
2023-05-04T03:29:26.619Z,68.80
2023-05-04T03:30:30.018Z,68.58
2023-05-04T03:31:35.939Z,69.06
2023-05-04T03:32:38.423Z,69.00
2023-05-04T03:33:40.646Z,69.21
2023-05-04T03:34:45.828Z,69.29
2023-05-04T03:35:48.790Z,69.21
2023-05-04T03:36:51.069Z,69.17
2023-05-04T03:37:53.569Z,69.10
2023-05-04T03:38:57.002Z,69.07
2023-05-04T03:39:59.771Z,69.15
2023-05-04T03:41:01.983Z,69.51
2023-05-04T03:42:04.636Z,69.93
2023-05-04T03:43:07.082Z,70.36
2023-05-04T03:44:09.493Z,70.56
2023-05-04T03:45:11.894Z,70.51
2023-05-04T03:46:14.131Z,70.11
2023-05-04T03:47:16.383Z,69.89
2023-05-04T03:48:18.754Z,69.57
2023-05-04T03:49:21.223Z,69.43
2023-05-04T03:50:23.918Z,69.18
2023-05-04T03:51:26.488Z,68.98
2023-05-04T03:52:28.684Z,68.81
2023-05-04T03:53:30.985Z,68.52
2023-05-04T03:54:33.438Z,68.49
2023-05-04T03:55:36.212Z,68.42
2023-05-04T03:56:38.501Z,68.60
2023-05-04T03:57:41.411Z,68.72
2023-05-04T03:58:43.828Z,68.62
2023-05-04T03:59:48.785Z,68.80
2023-05-04T04:00:51.138Z,68.91
2023-05-04T04:01:53.863Z,69.35
2023-05-04T04:02:56.450Z,69.39
2023-05-04T04:03:58.834Z,70.06
2023-05-04T04:05:01.746Z,70.18
2023-05-04T04:06:05.438Z,70.33
2023-05-04T04:07:07.653Z,70.50
2023-05-04T04:08:09.915Z,70.27
2023-05-04T04:09:12.384Z,70.17
2023-05-04T04:10:14.785Z,70.13
2023-05-04T04:11:17.062Z,70.01
2023-05-04T04:12:20.497Z,70.31
2023-05-04T04:13:22.803Z,70.57
2023-05-04T04:14:25.110Z,70.48
2023-05-04T04:15:27.524Z,70.04
2023-05-04T04:16:29.854Z,70.17
2023-05-04T04:17:32.127Z,70.42
2023-05-04T04:18:34.725Z,70.44
2023-05-04T04:19:37.061Z,70.85
2023-05-04T04:20:39.447Z,70.61
2023-05-04T04:21:42.926Z,70.56
2023-05-04T04:22:45.153Z,70.75
2023-05-04T04:23:47.782Z,70.79
2023-05-04T04:24:49.975Z,70.94
2023-05-04T04:25:54.124Z,70.77
2023-05-04T04:26:56.420Z,70.64
2023-05-04T04:27:58.588Z,71.08
2023-05-04T04:29:00.934Z,71.29
2023-05-04T04:30:06.558Z,71.54
2023-05-04T04:31:09.400Z,71.70
2023-05-04T04:32:11.690Z,71.63
2023-05-04T04:33:15.300Z,71.68
2023-05-04T04:34:17.924Z,71.89
2023-05-04T04:35:20.432Z,71.85
2023-05-04T04:36:22.723Z,71.77
2023-05-04T04:37:25.011Z,71.60
2023-05-04T04:38:27.373Z,71.52
2023-05-04T04:39:29.877Z,71.43
2023-05-04T04:40:32.847Z,71.77
2023-05-04T04:41:35.058Z,71.98
2023-05-04T04:42:37.342Z,71.95
2023-05-04T04:43:39.800Z,72.15
2023-05-04T04:44:42.292Z,71.83
2023-05-04T04:45:45.248Z,71.58
2023-05-04T04:46:48.496Z,71.71
2023-05-04T04:47:51.210Z,71.36
2023-05-04T04:48:54.349Z,71.20
2023-05-04T04:49:56.915Z,70.97
2023-05-04T04:50:59.313Z,70.47
2023-05-04T04:52:01.947Z,69.92
2023-05-04T04:53:04.393Z,69.50
2023-05-04T04:54:06.710Z,69.61
2023-05-04T04:55:09.294Z,69.36
2023-05-04T04:56:11.734Z,69.59
2023-05-04T04:57:13.922Z,69.37
2023-05-04T04:58:16.406Z,69.00
2023-05-04T04:59:18.802Z,69.20
2023-05-04T05:00:22.728Z,69.85
2023-05-04T05:01:26.245Z,70.25
2023-05-04T05:02:28.750Z,70.26
2023-05-04T05:03:31.705Z,69.75
2023-05-04T05:04:33.941Z,69.56
2023-05-04T05:05:37.133Z,69.04
2023-05-04T05:06:39.412Z,69.27
2023-05-04T05:07:42.358Z,69.09
2023-05-04T05:08:45.081Z,68.97
2023-05-04T05:09:47.413Z,68.89
2023-05-04T05:10:49.781Z,68.71
2023-05-04T05:11:52.169Z,68.42
2023-05-04T05:12:54.989Z,68.40
2023-05-04T05:13:59.797Z,68.10
2023-05-04T05:15:04.590Z,68.49
2023-05-04T05:16:06.947Z,68.65
2023-05-04T05:17:10.303Z,68.84
2023-05-04T05:18:12.549Z,68.37
2023-05-04T05:19:14.765Z,68.16
2023-05-04T05:20:17.148Z,67.92
2023-05-04T05:21:19.351Z,67.82
2023-05-04T05:22:22.209Z,67.78
2023-05-04T05:23:24.458Z,67.72
2023-05-04T05:24:26.930Z,67.80
2023-05-04T05:25:30.140Z,67.47
2023-05-04T05:26:32.836Z,67.63
2023-05-04T05:27:35.349Z,67.81
2023-05-04T05:28:37.988Z,67.87
2023-05-04T05:29:40.845Z,67.28
2023-05-04T05:30:43.347Z,67.81
2023-05-04T05:31:45.531Z,67.60
2023-05-04T05:32:49.358Z,67.23
2023-05-04T05:33:51.864Z,67.14
2023-05-04T05:34:54.264Z,66.84
2023-05-04T05:35:56.974Z,66.93
2023-05-04T05:36:59.319Z,66.80
2023-05-04T05:38:02.212Z,66.48
2023-05-04T05:39:04.448Z,66.25
2023-05-04T05:40:10.139Z,65.88
2023-05-04T05:41:12.849Z,66.09
2023-05-04T05:42:15.147Z,66.03
2023-05-04T05:43:18.222Z,65.32
2023-05-04T05:44:20.526Z,64.65
2023-05-04T05:45:23.947Z,64.61
2023-05-04T05:46:28.090Z,64.19
2023-05-04T05:47:31.239Z,63.69
2023-05-04T05:48:33.918Z,63.01
2023-05-04T05:49:36.148Z,62.66
2023-05-04T05:50:38.374Z,62.12
2023-05-04T05:51:41.772Z,61.85
2023-05-04T05:52:44.080Z,61.50
2023-05-04T05:53:46.680Z,61.07
2023-05-04T05:54:49.143Z,60.71
2023-05-04T05:55:51.328Z,60.28
2023-05-04T05:56:53.510Z,59.50
2023-05-04T05:57:55.780Z,58.46
2023-05-04T05:58:58.681Z,57.28
2023-05-04T06:00:00.984Z,55.40
2023-05-04T06:01:14.826Z,53.63
2023-05-04T06:02:17.099Z,51.87
2023-05-04T06:03:19.442Z,50.30
2023-05-04T06:04:22.099Z,48.56
2023-05-04T06:05:24.370Z,47.42
2023-05-04T06:06:26.873Z,47.55
2023-05-04T06:07:29.067Z,47.82
2023-05-04T06:08:31.800Z,47.04
2023-05-04T06:09:34.947Z,45.74
2023-05-04T06:10:37.123Z,44.99
2023-05-04T06:11:39.486Z,43.89
2023-05-04T06:12:41.734Z,43.15
2023-05-04T06:13:44.147Z,43.15
2023-05-04T06:14:47.969Z,42.95
2023-05-04T06:15:55.572Z,43.63
2023-05-04T06:16:58.237Z,43.78
2023-05-04T06:18:00.783Z,43.39
2023-05-04T06:19:03.294Z,42.25
2023-05-04T06:20:07.380Z,41.59
2023-05-04T06:21:10.183Z,40.99
2023-05-04T06:22:12.384Z,40.79
2023-05-04T06:23:17.610Z,40.12
2023-05-04T06:24:21.682Z,40.25
2023-05-04T06:25:24.277Z,40.36
2023-05-04T06:26:26.687Z,40.36
2023-05-04T06:27:31.633Z,39.84
2023-05-04T06:28:34.954Z,39.49
2023-05-04T06:29:40.262Z,39.28
2023-05-04T06:30:42.828Z,39.35
2023-05-04T06:31:48.101Z,39.31
2023-05-04T06:32:51.303Z,38.37
2023-05-04T06:33:53.896Z,38.55
2023-05-04T06:34:56.238Z,38.22
2023-05-04T06:35:58.757Z,37.20
2023-05-04T06:37:00.942Z,36.87
2023-05-04T06:38:03.551Z,36.75
2023-05-04T06:39:05.962Z,37.36
2023-05-04T06:40:09.186Z,36.41
2023-05-04T06:41:11.790Z,35.53
2023-05-04T06:42:14.148Z,35.27
2023-05-04T06:43:17.551Z,36.95
2023-05-04T06:44:19.747Z,36.99
2023-05-04T06:45:22.188Z,36.62
2023-05-04T06:46:24.615Z,35.86
2023-05-04T06:47:26.885Z,35.65
2023-05-04T06:48:29.911Z,34.90
2023-05-04T06:49:32.644Z,34.29
2023-05-04T06:50:36.145Z,34.56
2023-05-04T06:51:39.212Z,34.15
2023-05-04T06:52:44.242Z,33.78
2023-05-04T06:53:46.778Z,33.58
2023-05-04T06:54:49.006Z,33.38
2023-05-04T06:55:51.605Z,33.00
2023-05-04T06:56:53.967Z,33.00
2023-05-04T06:57:56.514Z,32.89
2023-05-04T06:58:58.817Z,32.19
2023-05-04T07:00:01.489Z,32.21
2023-05-04T07:01:09.368Z,32.36
2023-05-04T07:02:12.090Z,33.13
2023-05-04T07:03:14.598Z,33.16
2023-05-04T07:04:17.134Z,32.83
2023-05-04T07:05:20.806Z,32.55
2023-05-04T07:06:26.597Z,33.10
2023-05-04T07:07:28.845Z,32.04
2023-05-04T07:08:31.425Z,32.29
2023-05-04T07:09:33.989Z,33.23
2023-05-04T07:10:36.419Z,33.29
2023-05-04T07:11:38.803Z,32.94
2023-05-04T07:12:41.783Z,32.04
2023-05-04T07:13:44.093Z,31.58
2023-05-04T07:14:46.328Z,31.44
2023-05-04T07:15:48.712Z,30.49
2023-05-04T07:16:51.113Z,30.67
2023-05-04T07:17:53.643Z,30.69
2023-05-04T07:18:58.710Z,29.88
2023-05-04T07:20:03.863Z,29.87
2023-05-04T07:21:27.490Z,30.37
2023-05-04T07:22:32.740Z,30.16
2023-05-04T07:23:36.095Z,30.20
2023-05-04T07:24:40.887Z,30.21
2023-05-04T07:25:44.888Z,30.00
2023-05-04T07:26:47.100Z,29.27
2023-05-04T07:27:49.713Z,28.80
2023-05-04T07:28:52.058Z,29.27
2023-05-04T07:29:55.143Z,28.58
2023-05-04T07:30:58.159Z,28.71
2023-05-04T07:32:00.387Z,29.18
2023-05-04T07:33:02.938Z,28.89
2023-05-04T07:34:05.635Z,28.36
2023-05-04T07:35:08.699Z,28.28
2023-05-04T07:36:11.064Z,27.90
2023-05-04T07:37:13.823Z,28.07
2023-05-04T07:38:16.047Z,28.13
2023-05-04T07:39:19.636Z,27.46
2023-05-04T07:40:22.182Z,27.24
2023-05-04T07:41:24.466Z,26.86
2023-05-04T07:42:28.030Z,26.86
2023-05-04T07:43:30.254Z,26.73
2023-05-04T07:44:32.534Z,26.81
2023-05-04T07:45:35.127Z,26.39
2023-05-04T07:46:38.776Z,26.87
2023-05-04T07:47:41.631Z,26.82
2023-05-04T07:48:43.939Z,27.21
2023-05-04T07:49:46.601Z,28.16
2023-05-04T07:50:49.377Z,27.99
2023-05-04T07:51:52.100Z,28.43
2023-05-04T07:52:54.492Z,27.75
2023-05-04T07:53:56.933Z,27.55
2023-05-04T07:54:59.182Z,26.94
2023-05-04T07:56:08.649Z,26.12
2023-05-04T07:57:11.385Z,26.47
2023-05-04T07:58:16.652Z,25.99
2023-05-04T07:59:19.153Z,25.59
2023-05-04T08:00:21.784Z,25.48
2023-05-04T08:01:24.732Z,24.98
2023-05-04T08:02:27.297Z,24.68
2023-05-04T08:03:30.756Z,24.52
2023-05-04T08:04:33.168Z,24.27
2023-05-04T08:05:35.639Z,24.36
2023-05-04T08:06:41.747Z,24.44
2023-05-04T08:07:44.341Z,25.32
2023-05-04T08:08:51.429Z,25.87
2023-05-04T08:09:57.045Z,26.24
2023-05-04T08:11:11.740Z,26.57
2023-05-04T08:12:18.618Z,26.57
2023-05-04T08:13:20.889Z,26.31
2023-05-04T08:14:23.335Z,26.08
2023-05-04T08:15:25.884Z,25.40
2023-05-04T08:16:29.372Z,24.91
2023-05-04T08:17:32.358Z,25.11
2023-05-04T08:18:34.705Z,25.00
2023-05-04T08:19:37.003Z,24.89
2023-05-04T08:20:39.573Z,24.57
2023-05-04T08:21:42.201Z,24.51
2023-05-04T08:22:44.449Z,24.70
2023-05-04T08:23:46.908Z,25.52
2023-05-04T08:24:49.152Z,26.50
2023-05-04T08:25:52.452Z,26.30
2023-05-04T08:27:07.209Z,26.02
2023-05-04T08:28:11.102Z,26.62
2023-05-04T08:29:13.345Z,26.84
2023-05-04T08:30:16.888Z,25.92
2023-05-04T08:31:19.312Z,25.25
2023-05-04T08:32:22.624Z,26.10
2023-05-04T08:33:24.902Z,26.26
2023-05-04T08:34:27.156Z,26.46
2023-05-04T08:35:29.593Z,26.14
2023-05-04T08:36:32.163Z,25.26
2023-05-04T08:37:34.931Z,25.64
2023-05-04T08:38:37.397Z,25.84
2023-05-04T08:39:41.826Z,25.66
2023-05-04T08:40:44.564Z,25.51
2023-05-04T08:41:46.817Z,25.50
2023-05-04T08:42:50.627Z,25.24
2023-05-04T08:43:53.259Z,25.62
2023-05-04T08:44:59.484Z,25.97
2023-05-04T08:46:03.358Z,25.80
2023-05-04T08:47:05.881Z,25.93
2023-05-04T08:48:08.884Z,25.77
2023-05-04T08:49:11.918Z,25.06
2023-05-04T08:50:17.154Z,24.87
2023-05-04T08:51:23.589Z,24.31
2023-05-04T08:52:26.605Z,24.97
2023-05-04T08:53:31.290Z,24.94
2023-05-04T08:54:35.439Z,24.91
2023-05-04T08:55:39.511Z,25.04
2023-05-04T08:56:42.852Z,25.02
2023-05-04T08:57:45.776Z,24.64
2023-05-04T08:58:50.981Z,24.25
2023-05-04T08:59:55.306Z,24.24
2023-05-04T09:00:59.481Z,24.91
2023-05-04T09:02:04.150Z,24.93
2023-05-04T09:03:07.644Z,25.30
2023-05-04T09:04:11.177Z,25.87
2023-05-04T09:05:13.923Z,25.83
2023-05-04T09:06:16.421Z,25.65
2023-05-04T09:07:20.465Z,25.35
2023-05-04T09:08:22.846Z,26.30
2023-05-04T09:09:28.596Z,25.57
2023-05-04T09:10:31.378Z,25.03
2023-05-04T09:11:33.725Z,24.34
2023-05-04T09:12:37.986Z,24.62
2023-05-04T09:13:42.588Z,24.52
2023-05-04T09:14:46.501Z,24.09
2023-05-04T09:15:58.985Z,24.26
2023-05-04T09:17:02.496Z,24.62
2023-05-04T09:18:06.336Z,24.74
2023-05-04T09:19:21.150Z,24.54
2023-05-04T09:20:23.683Z,23.96
2023-05-04T09:21:30.590Z,24.32
2023-05-04T09:22:33.965Z,24.51
2023-05-04T09:23:46.705Z,24.70
2023-05-04T09:24:49.137Z,25.71
2023-05-04T09:25:53.741Z,26.49
2023-05-04T09:26:56.235Z,26.65
2023-05-04T09:27:58.505Z,26.94
2023-05-04T09:29:15.177Z,27.83
2023-05-04T09:30:21.199Z,27.80
2023-05-04T09:31:24.361Z,28.21
2023-05-04T09:32:26.778Z,27.60
2023-05-04T09:33:29.307Z,26.56
2023-05-04T09:34:33.552Z,27.01
2023-05-04T09:35:41.919Z,27.22
2023-05-04T09:36:44.378Z,27.46
2023-05-04T09:37:47.294Z,27.58
2023-05-04T09:38:49.592Z,27.28
2023-05-04T09:39:57.819Z,27.01
2023-05-04T09:41:00.034Z,27.90
2023-05-04T09:42:02.727Z,27.88
2023-05-04T09:43:06.876Z,27.72
2023-05-04T09:44:22.492Z,27.33
2023-05-04T09:45:24.759Z,26.85
2023-05-04T09:46:27.263Z,26.60
2023-05-04T09:47:40.196Z,26.68
2023-05-04T09:48:51.848Z,26.90
2023-05-04T09:49:54.153Z,27.06
2023-05-04T09:50:58.508Z,27.44
2023-05-04T09:52:02.862Z,26.93
2023-05-04T09:53:07.336Z,26.86
2023-05-04T09:54:10.486Z,27.00
2023-05-04T09:55:15.209Z,26.52
2023-05-04T09:56:28.503Z,26.77
2023-05-04T09:57:31.263Z,26.53
2023-05-04T09:58:34.262Z,26.72
2023-05-04T09:59:37.018Z,27.28
2023-05-04T10:00:39.661Z,27.12
2023-05-04T10:01:44.690Z,27.64
2023-05-04T10:02:48.210Z,27.83
2023-05-04T10:03:52.646Z,27.92
2023-05-04T10:04:58.894Z,27.73
2023-05-04T10:06:04.636Z,27.30
2023-05-04T10:07:07.142Z,26.73
2023-05-04T10:08:09.718Z,27.19
2023-05-04T10:09:13.158Z,27.10
2023-05-04T10:10:15.629Z,27.27
2023-05-04T10:11:19.295Z,27.34
2023-05-04T10:12:21.504Z,27.45
2023-05-04T10:13:24.715Z,27.28
2023-05-04T10:14:31.345Z,28.45
2023-05-04T10:15:34.195Z,28.53
2023-05-04T10:16:45.127Z,28.57
2023-05-04T10:17:57.639Z,28.20
2023-05-04T10:19:33.873Z,28.28
2023-05-04T10:20:48.302Z,28.42
2023-05-04T10:22:08.832Z,28.33
2023-05-04T10:23:46.816Z,27.64
2023-05-04T10:25:19.195Z,27.79
2023-05-04T10:26:59.559Z,28.33
2023-05-04T10:28:31.091Z,29.13
2023-05-04T10:29:34.921Z,29.10
2023-05-04T10:30:40.155Z,29.30
2023-05-04T10:31:43.987Z,28.79
2023-05-04T10:32:46.495Z,29.06
2023-05-04T10:33:48.955Z,28.98
2023-05-04T10:34:52.382Z,28.59
2023-05-04T10:35:55.388Z,28.77
2023-05-04T10:36:59.289Z,28.42
2023-05-04T10:38:01.593Z,27.53
2023-05-04T10:39:05.336Z,27.65
2023-05-04T10:40:08.562Z,27.52
2023-05-04T10:41:21.667Z,27.74
2023-05-04T10:42:24.336Z,27.83
2023-05-04T10:43:29.123Z,28.25
2023-05-04T10:44:33.833Z,27.85
2023-05-04T10:45:37.676Z,27.63
2023-05-04T10:46:39.985Z,28.01
2023-05-04T10:47:42.275Z,28.19
2023-05-04T10:48:44.613Z,27.76
2023-05-04T10:49:47.055Z,27.39
2023-05-04T10:50:50.616Z,26.85
2023-05-04T10:52:13.625Z,27.07
2023-05-04T10:53:17.808Z,27.20
2023-05-04T10:54:20.105Z,27.16
2023-05-04T10:55:22.665Z,27.43
2023-05-04T10:56:28.665Z,26.95
2023-05-04T10:57:31.411Z,27.57
2023-05-04T10:58:33.832Z,28.27
2023-05-04T10:59:37.265Z,28.37
2023-05-04T11:00:45.819Z,28.86
2023-05-04T11:01:48.784Z,28.20
2023-05-04T11:02:51.108Z,27.97
2023-05-04T11:03:54.036Z,27.49
2023-05-04T11:05:05.934Z,27.38
2023-05-04T11:06:24.390Z,27.61
2023-05-04T11:07:37.958Z,27.66
2023-05-04T11:08:40.557Z,27.54
2023-05-04T11:09:44.402Z,27.22
2023-05-04T11:10:48.124Z,27.40
2023-05-04T11:11:50.821Z,26.81
2023-05-04T11:12:55.900Z,26.65
2023-05-04T11:13:59.010Z,26.15
2023-05-04T11:15:10.891Z,26.12
2023-05-04T11:16:26.749Z,26.23
2023-05-04T11:17:29.168Z,25.67
2023-05-04T11:18:35.398Z,25.99
2023-05-04T11:19:51.237Z,25.66
2023-05-04T11:20:54.690Z,25.27
2023-05-04T11:21:56.945Z,25.26
2023-05-04T11:22:59.121Z,25.27
2023-05-04T11:24:02.685Z,25.75
2023-05-04T11:25:05.542Z,25.82
2023-05-04T11:26:12.333Z,24.89
2023-05-04T11:27:31.034Z,25.18
2023-05-04T11:28:34.851Z,25.58
2023-05-04T11:29:37.574Z,25.44
2023-05-04T11:30:42.485Z,25.50
2023-05-04T11:31:54.751Z,24.87
2023-05-04T11:32:59.296Z,25.01
2023-05-04T11:34:01.557Z,25.38
2023-05-04T11:35:07.436Z,25.37
2023-05-04T11:36:11.205Z,25.37
2023-05-04T11:37:13.917Z,25.46
2023-05-04T11:38:20.237Z,25.73
2023-05-04T11:39:22.510Z,25.95
2023-05-04T11:40:26.901Z,26.35
2023-05-04T11:41:29.943Z,26.60
2023-05-04T11:42:32.861Z,26.05
2023-05-04T11:43:37.366Z,26.02
2023-05-04T11:44:40.746Z,25.72
2023-05-04T11:45:43.591Z,26.68
2023-05-04T11:46:48.369Z,26.74
2023-05-04T11:47:52.439Z,26.26
2023-05-04T11:48:54.853Z,26.08
2023-05-04T11:49:57.168Z,25.82
2023-05-04T11:50:59.647Z,25.59
2023-05-04T11:52:09.080Z,25.80
2023-05-04T11:53:13.588Z,25.36
2023-05-04T11:54:22.274Z,25.37
2023-05-04T11:55:30.550Z,25.67
2023-05-04T11:56:41.620Z,25.12
2023-05-04T11:57:44.086Z,24.59
2023-05-04T11:58:46.519Z,24.38
2023-05-04T11:59:49.389Z,24.33
2023-05-04T12:00:56.738Z,23.90
2023-05-04T12:02:00.217Z,23.49
2023-05-04T12:03:03.226Z,23.19
2023-05-04T12:04:06.556Z,23.16
2023-05-04T12:05:13.981Z,23.29
2023-05-04T12:06:16.598Z,23.45
2023-05-04T12:07:18.857Z,23.62
2023-05-04T12:08:26.188Z,23.73
2023-05-04T12:09:28.584Z,23.91
2023-05-04T12:10:33.505Z,23.71
2023-05-04T12:11:38.251Z,23.67
2023-05-04T12:12:40.818Z,24.47
2023-05-04T12:13:45.109Z,24.52
2023-05-04T12:14:58.294Z,24.43
2023-05-04T12:16:18.189Z,24.42
2023-05-04T12:17:21.398Z,25.17
2023-05-04T12:18:29.367Z,25.71
2023-05-04T12:19:31.885Z,25.70
2023-05-04T12:20:34.766Z,25.64
2023-05-04T12:21:37.185Z,25.30
2023-05-04T12:22:39.755Z,26.15
2023-05-04T12:23:42.595Z,25.99
2023-05-04T12:24:45.044Z,26.54
2023-05-04T12:25:57.256Z,26.25
2023-05-04T12:27:00.715Z,26.18
2023-05-04T12:28:03.530Z,26.22
2023-05-04T12:29:05.936Z,26.71
2023-05-04T12:30:09.015Z,26.71
2023-05-04T12:31:11.264Z,26.04
2023-05-04T12:32:13.596Z,26.21
2023-05-04T12:33:15.910Z,25.58
2023-05-04T12:34:18.278Z,25.83
2023-05-04T12:35:20.705Z,25.05
2023-05-04T12:36:23.184Z,24.90
2023-05-04T12:37:25.459Z,25.03
2023-05-04T12:38:28.585Z,25.30
2023-05-04T12:39:32.646Z,25.42
2023-05-04T12:40:35.242Z,25.38
2023-05-04T12:41:37.593Z,25.21
2023-05-04T12:42:42.273Z,25.52
2023-05-04T12:43:44.646Z,25.23
2023-05-04T12:44:47.173Z,24.86
2023-05-04T12:45:51.006Z,25.14
2023-05-04T12:46:55.313Z,24.91
2023-05-04T12:47:57.625Z,24.94
2023-05-04T12:49:00.101Z,25.13
2023-05-04T12:50:05.185Z,24.85
2023-05-04T12:51:07.428Z,24.36
2023-05-04T12:52:10.249Z,24.21
2023-05-04T12:53:12.883Z,24.28
2023-05-04T12:54:15.533Z,24.02
2023-05-04T12:55:18.776Z,24.38
2023-05-04T12:56:21.513Z,24.17
2023-05-04T12:57:24.512Z,24.72
2023-05-04T12:58:27.569Z,24.49
2023-05-04T12:59:29.947Z,24.40
2023-05-04T13:00:36.166Z,24.10
2023-05-04T13:01:40.268Z,23.50
2023-05-04T13:02:42.919Z,23.22
2023-05-04T13:03:45.370Z,23.63
2023-05-04T13:04:47.801Z,23.66
2023-05-04T13:05:50.307Z,23.68
2023-05-04T13:06:52.498Z,23.67
2023-05-04T13:07:55.559Z,23.96
2023-05-04T13:08:58.212Z,24.10
2023-05-04T13:10:01.457Z,24.08
2023-05-04T13:11:03.779Z,23.89
2023-05-04T13:12:06.223Z,23.63
2023-05-04T13:13:08.687Z,23.42
2023-05-04T13:14:11.157Z,23.60
2023-05-04T13:15:13.928Z,23.62
2023-05-04T13:16:17.025Z,23.28
2023-05-04T13:17:20.378Z,23.24
2023-05-04T13:18:27.118Z,23.35
2023-05-04T13:19:29.465Z,23.08
2023-05-04T13:20:32.056Z,23.45
2023-05-04T13:21:34.589Z,23.57
2023-05-04T13:22:37.059Z,23.86
2023-05-04T13:23:39.329Z,24.01
2023-05-04T13:24:41.548Z,24.23
2023-05-04T13:25:43.735Z,24.60
2023-05-04T13:26:46.823Z,24.06
2023-05-04T13:27:49.187Z,23.69
2023-05-04T13:28:51.730Z,23.84
2023-05-04T13:29:53.952Z,24.04
2023-05-04T13:30:56.242Z,24.12
2023-05-04T13:31:59.666Z,23.85
2023-05-04T13:33:07.592Z,23.61
2023-05-04T13:34:15.916Z,23.50
2023-05-04T13:35:18.310Z,23.13
2023-05-04T13:36:20.533Z,23.12
2023-05-04T13:37:23.626Z,23.19
2023-05-04T13:38:26.319Z,23.25
2023-05-04T13:39:28.674Z,23.51
2023-05-04T13:40:30.893Z,23.94
2023-05-04T13:41:34.485Z,23.68
2023-05-04T13:42:37.544Z,24.11
2023-05-04T13:43:40.111Z,23.92
2023-05-04T13:44:45.078Z,24.21